createdAt,value
2022-10-21T00:01:18.896Z,15.35
2022-10-21T00:03:46.132Z,17.48
2022-10-21T00:06:13.235Z,17.05
2022-10-21T00:08:40.385Z,16.10
2022-10-21T00:11:08.898Z,17.10
2022-10-21T00:13:36.688Z,15.90
2022-10-21T00:16:03.661Z,14.45
2022-10-21T00:18:31.335Z,16.02
2022-10-21T00:20:58.369Z,15.23
2022-10-21T00:23:25.348Z,14.75
2022-10-21T00:25:56.479Z,14.15
2022-10-21T00:28:23.472Z,16.13
2022-10-21T00:30:50.492Z,17.38
2022-10-21T00:33:17.538Z,13.18
2022-10-21T00:35:44.541Z,14.75
2022-10-21T00:38:11.584Z,16.48
2022-10-21T00:40:38.596Z,17.40
2022-10-21T00:43:05.644Z,15.02
2022-10-21T00:45:32.679Z,14.32
2022-10-21T00:48:02.594Z,18.85
2022-10-21T00:50:33.042Z,15.60
2022-10-21T00:53:01.219Z,14.25
2022-10-21T00:55:30.414Z,16.30
2022-10-21T00:57:57.495Z,13.05
2022-10-21T01:00:24.611Z,16.27
2022-10-21T01:02:51.717Z,24.08
2022-10-21T01:05:19.400Z,16.77
2022-10-21T01:07:49.785Z,14.50
2022-10-21T01:10:17.245Z,16.77
2022-10-21T01:13:02.806Z,13.63
2022-10-21T01:15:43.019Z,15.70
2022-10-21T01:18:15.024Z,15.90
2022-10-21T01:20:52.439Z,16.25
2022-10-21T01:23:34.728Z,15.10
2022-10-21T01:26:40.128Z,16.73
2022-10-21T01:29:21.871Z,16.10
2022-10-21T01:31:59.272Z,16.13
2022-10-21T01:34:26.246Z,15.20
2022-10-21T01:36:59.048Z,17.05
2022-10-21T01:39:47.541Z,14.02
2022-10-21T01:42:17.718Z,14.73
2022-10-21T01:44:53.692Z,15.82
2022-10-21T01:47:27.716Z,13.00
2022-10-21T01:49:58.819Z,15.13
2022-10-21T01:52:26.974Z,21.70
2022-10-21T01:54:57.963Z,17.85
2022-10-21T01:57:27.270Z,15.80
2022-10-21T01:59:55.565Z,15.65
2022-10-21T02:02:23.275Z,14.93
2022-10-21T02:04:52.001Z,15.57
2022-10-21T02:07:19.061Z,21.80
2022-10-21T02:09:46.124Z,15.20
2022-10-21T02:12:13.556Z,14.63
2022-10-21T02:14:43.139Z,14.45
2022-10-21T02:17:14.555Z,15.60
2022-10-21T02:19:41.897Z,16.60
2022-10-21T02:22:09.624Z,15.95
2022-10-21T02:24:51.376Z,12.05
2022-10-21T02:27:19.067Z,15.85
2022-10-21T02:29:46.689Z,15.60
2022-10-21T02:32:16.804Z,16.92
2022-10-21T02:34:49.592Z,15.82
2022-10-21T02:37:19.386Z,15.05
2022-10-21T02:40:07.816Z,16.40
2022-10-21T02:42:37.267Z,16.73
2022-10-21T02:45:05.009Z,15.07
2022-10-21T02:47:32.082Z,14.55
2022-10-21T02:49:59.148Z,13.68
2022-10-21T02:52:26.205Z,15.63
2022-10-21T02:54:53.175Z,15.75
2022-10-21T02:57:20.204Z,15.85
2022-10-21T02:59:47.206Z,18.23
2022-10-21T03:02:14.205Z,14.63
2022-10-21T03:04:41.249Z,16.30
2022-10-21T03:07:08.312Z,18.33
2022-10-21T03:09:35.300Z,16.52
2022-10-21T03:12:02.302Z,14.38
2022-10-21T03:14:29.281Z,13.98
2022-10-21T03:16:56.274Z,13.18
2022-10-21T03:19:23.260Z,14.85
2022-10-21T03:21:50.233Z,12.98
2022-10-21T03:24:28.100Z,16.92
2022-10-21T03:26:56.218Z,15.95
2022-10-21T03:29:23.276Z,14.45
2022-10-21T03:31:50.264Z,17.55
2022-10-21T03:34:17.436Z,14.18
2022-10-21T03:36:44.424Z,17.45
2022-10-21T03:39:12.030Z,16.08
2022-10-21T03:41:39.137Z,18.13
2022-10-21T03:44:05.744Z,15.48
2022-10-21T03:46:32.906Z,18.27
2022-10-21T03:49:04.337Z,15.68
2022-10-21T03:51:32.582Z,16.05
2022-10-21T03:53:59.607Z,15.77
2022-10-21T03:56:27.074Z,13.68
2022-10-21T03:58:58.551Z,13.40
2022-10-21T04:01:26.127Z,14.95
2022-10-21T04:03:53.236Z,17.30
2022-10-21T04:06:20.371Z,15.00
2022-10-21T04:08:47.670Z,16.75
2022-10-21T04:11:14.711Z,16.85
2022-10-21T04:13:41.775Z,16.83
2022-10-21T04:16:11.445Z,15.82
2022-10-21T04:18:38.481Z,14.73
2022-10-21T04:21:05.607Z,16.05
2022-10-21T04:23:32.594Z,12.38
2022-10-21T04:25:59.588Z,16.80
2022-10-21T04:28:26.657Z,17.80
2022-10-21T04:30:53.655Z,12.27
2022-10-21T04:33:20.738Z,14.50
2022-10-21T04:35:47.841Z,14.98
2022-10-21T04:38:14.869Z,13.25
2022-10-21T04:40:41.909Z,16.20
2022-10-21T04:43:08.997Z,14.55
2022-10-21T04:45:39.462Z,12.30
2022-10-21T04:48:07.024Z,12.95
2022-10-21T04:50:35.159Z,14.02
2022-10-21T04:53:02.190Z,13.73
2022-10-21T04:55:29.243Z,12.60
2022-10-21T04:57:56.226Z,14.43
2022-10-21T05:00:23.256Z,14.07
2022-10-21T05:02:50.243Z,11.30
2022-10-21T05:05:17.248Z,16.23
2022-10-21T05:07:44.256Z,13.45
2022-10-21T05:10:11.332Z,15.70
2022-10-21T05:12:38.352Z,14.10
2022-10-21T05:15:05.588Z,11.75
2022-10-21T05:17:32.590Z,14.45
2022-10-21T05:19:59.615Z,17.05
2022-10-21T05:22:26.685Z,13.20
2022-10-21T05:24:53.675Z,13.82
2022-10-21T05:27:20.691Z,12.48
2022-10-21T05:29:47.699Z,13.23
2022-10-21T05:32:14.688Z,16.85
2022-10-21T05:34:41.701Z,14.38
2022-10-21T05:37:08.748Z,44.30
2022-10-21T05:39:35.755Z,18.77
2022-10-21T05:42:02.880Z,13.35
2022-10-21T05:44:29.877Z,21.95
2022-10-21T05:46:56.990Z,15.50
2022-10-21T05:49:24.098Z,18.33
2022-10-21T05:51:51.362Z,13.68
2022-10-21T05:54:18.428Z,12.43
2022-10-21T05:56:45.522Z,15.02
2022-10-21T05:59:12.544Z,16.65
2022-10-21T06:01:39.638Z,15.65
2022-10-21T06:04:06.754Z,13.73
2022-10-21T06:06:33.955Z,12.20
2022-10-21T06:09:01.069Z,13.93
2022-10-21T06:11:28.188Z,17.42
2022-10-21T06:13:55.244Z,13.07
2022-10-21T06:16:22.279Z,17.38
2022-10-21T06:18:49.293Z,12.55
2022-10-21T06:21:16.469Z,13.90
2022-10-21T06:23:43.506Z,13.60
2022-10-21T06:26:14.580Z,12.70
2022-10-21T06:28:42.474Z,14.98
2022-10-21T06:31:11.806Z,19.38
2022-10-21T06:33:38.832Z,14.55
2022-10-21T06:36:05.965Z,14.85
2022-10-21T06:38:33.649Z,14.43
2022-10-21T06:41:06.891Z,14.38
2022-10-21T06:43:36.276Z,15.48
2022-10-21T06:46:07.155Z,15.35
2022-10-21T06:48:34.272Z,15.77
2022-10-21T06:51:02.402Z,14.70
2022-10-21T06:53:30.651Z,13.52
2022-10-21T06:56:07.954Z,16.25
2022-10-21T06:58:35.537Z,14.30
2022-10-21T07:01:16.749Z,14.05
2022-10-21T07:03:55.187Z,15.80
2022-10-21T07:06:22.510Z,15.73
2022-10-21T07:08:57.958Z,11.73
2022-10-21T07:11:25.871Z,14.95
2022-10-21T07:13:52.878Z,17.45
2022-10-21T07:16:22.363Z,19.08
2022-10-21T07:18:49.550Z,14.48
2022-10-21T07:21:20.445Z,13.82
2022-10-21T07:23:48.342Z,15.00
2022-10-21T07:26:15.470Z,13.32
2022-10-21T07:28:46.920Z,14.93
2022-10-21T07:31:17.434Z,13.30
2022-10-21T07:33:44.545Z,14.48
2022-10-21T07:36:13.691Z,14.77
2022-10-21T07:38:43.688Z,16.40
2022-10-21T07:41:14.264Z,19.27
2022-10-21T07:43:41.220Z,14.60
2022-10-21T07:46:08.219Z,16.23
2022-10-21T07:48:35.219Z,18.08
2022-10-21T07:51:06.678Z,12.05
2022-10-21T07:53:34.332Z,13.27
2022-10-21T07:56:02.169Z,15.52
2022-10-21T07:58:29.429Z,12.43
2022-10-21T08:00:58.672Z,14.38
2022-10-21T08:03:25.731Z,12.00
2022-10-21T08:05:53.059Z,14.90
2022-10-21T08:08:21.693Z,13.48
2022-10-21T08:13:22.003Z,9.77
2022-10-21T08:15:50.188Z,11.35
2022-10-21T08:18:17.890Z,14.73
2022-10-21T08:20:46.134Z,14.65
2022-10-21T08:23:14.098Z,9.73
2022-10-21T08:25:47.111Z,15.45
2022-10-21T08:28:14.204Z,15.23
2022-10-21T08:30:41.203Z,10.68
2022-10-21T08:33:08.239Z,14.57
2022-10-21T08:35:35.461Z,10.98
2022-10-21T08:38:02.537Z,12.82
2022-10-21T08:40:32.286Z,10.07
2022-10-21T08:43:07.140Z,13.73
2022-10-21T08:45:44.398Z,11.70
2022-10-21T08:48:15.413Z,14.40
2022-10-21T08:50:52.534Z,11.82
2022-10-21T08:53:26.607Z,11.85
2022-10-21T08:55:58.376Z,9.20
2022-10-21T08:58:25.579Z,9.23
2022-10-21T09:00:59.546Z,8.07
2022-10-21T09:06:05.836Z,13.70
2022-10-21T09:08:40.247Z,9.57
2022-10-21T09:11:07.395Z,10.48
2022-10-21T09:13:51.225Z,12.00
2022-10-21T09:16:24.687Z,17.35
2022-10-21T09:19:07.056Z,10.05
2022-10-21T09:21:52.861Z,9.40
2022-10-21T09:24:25.375Z,10.25
2022-10-21T09:26:53.413Z,13.93
2022-10-21T09:29:23.381Z,13.02
2022-10-21T09:31:56.058Z,13.43
2022-10-21T09:34:42.973Z,10.77
2022-10-21T09:37:15.375Z,14.43
2022-10-21T09:39:51.266Z,14.05
2022-10-21T09:42:35.761Z,12.18
2022-10-21T09:45:05.575Z,11.70
2022-10-21T09:47:33.002Z,12.00
2022-10-21T09:50:07.200Z,15.50
2022-10-21T09:52:36.930Z,12.77
2022-10-21T09:55:04.533Z,18.40
2022-10-21T09:57:51.761Z,16.98
2022-10-21T10:00:18.836Z,15.55
2022-10-21T10:02:46.560Z,26.80
2022-10-21T10:05:32.292Z,16.60
2022-10-21T10:07:59.327Z,20.63
2022-10-21T10:10:31.083Z,17.60
2022-10-21T10:12:58.814Z,17.98
2022-10-21T10:15:33.312Z,16.67
2022-10-21T10:18:01.159Z,17.55
2022-10-21T10:20:28.208Z,18.90
2022-10-21T10:22:58.241Z,16.45
2022-10-21T10:25:28.399Z,22.35
2022-10-21T10:27:59.609Z,18.63
2022-10-21T10:30:30.189Z,18.33
2022-10-21T10:32:57.492Z,17.10
2022-10-21T10:35:32.435Z,17.10
2022-10-21T10:38:02.156Z,15.32
2022-10-21T10:40:38.763Z,16.40
2022-10-21T10:43:14.139Z,15.93
2022-10-21T10:45:48.261Z,17.45
2022-10-21T10:48:33.986Z,19.63
2022-10-21T10:51:00.976Z,18.02
2022-10-21T10:53:27.956Z,16.77
2022-10-21T10:55:58.032Z,20.08
2022-10-21T10:58:28.210Z,17.27
2022-10-21T11:00:57.970Z,15.63
2022-10-21T11:03:30.425Z,16.90
2022-10-21T11:06:03.638Z,18.08
2022-10-21T11:08:34.333Z,16.08
2022-10-21T11:11:03.491Z,18.95
2022-10-21T11:13:30.540Z,15.63
2022-10-21T11:15:57.532Z,19.15
2022-10-21T11:18:29.912Z,16.35
2022-10-21T11:21:15.343Z,15.60
2022-10-21T11:23:57.655Z,14.93
2022-10-21T11:27:00.611Z,16.10
2022-10-21T11:29:40.246Z,14.48
2022-10-21T11:32:16.266Z,17.88
2022-10-21T11:35:12.698Z,18.77
2022-10-21T11:38:07.368Z,17.33
2022-10-21T11:40:54.133Z,17.73
2022-10-21T11:43:41.653Z,15.73
2022-10-21T11:46:27.157Z,14.45
2022-10-21T11:49:13.549Z,13.80
2022-10-21T11:51:48.869Z,13.25
2022-10-21T11:54:34.737Z,12.40
2022-10-21T11:57:09.992Z,12.07
2022-10-21T11:59:57.910Z,14.95
2022-10-21T12:02:44.513Z,12.55
2022-10-21T12:05:24.373Z,14.23
2022-10-21T12:08:04.457Z,15.05
2022-10-21T12:10:45.072Z,10.80
2022-10-21T12:13:33.096Z,11.27
2022-10-21T12:16:06.238Z,13.18
2022-10-21T12:18:35.409Z,10.03
2022-10-21T12:21:02.602Z,15.43
2022-10-21T12:23:31.699Z,10.80
2022-10-21T12:26:14.212Z,13.73
2022-10-21T12:28:44.335Z,12.15
2022-10-21T12:31:14.150Z,15.75
2022-10-21T12:33:42.310Z,10.27
2022-10-21T12:36:16.073Z,11.50
2022-10-21T12:38:44.855Z,10.55
2022-10-21T12:41:20.929Z,10.38
2022-10-21T12:43:53.820Z,11.40
2022-10-21T12:46:25.164Z,8.48
2022-10-21T12:48:52.499Z,8.10
2022-10-21T12:51:22.273Z,6.15
2022-10-21T12:56:28.654Z,10.38
2022-10-21T12:58:58.947Z,11.38
2022-10-21T13:01:38.620Z,6.97
2022-10-21T13:04:06.330Z,9.02
2022-10-21T13:06:53.659Z,9.50
2022-10-21T13:09:32.907Z,7.63
2022-10-21T13:12:08.764Z,10.82
2022-10-21T13:14:54.477Z,9.63
2022-10-21T13:17:21.431Z,9.88
2022-10-21T13:19:48.458Z,7.53
2022-10-21T13:22:18.602Z,9.15
2022-10-21T13:24:46.355Z,8.10
2022-10-21T13:30:07.902Z,6.65
2022-10-21T13:32:36.236Z,10.75
2022-10-21T13:35:26.795Z,6.55
2022-10-21T13:38:18.241Z,8.20
2022-10-21T13:40:50.475Z,7.25
2022-10-21T13:43:19.477Z,9.80
2022-10-21T13:45:51.675Z,8.23
2022-10-21T13:48:18.715Z,9.18
2022-10-21T13:50:47.175Z,10.07
2022-10-21T13:53:25.299Z,11.82
2022-10-21T13:55:55.682Z,7.35
2022-10-21T13:58:23.663Z,6.30
2022-10-21T14:00:53.845Z,6.82
2022-10-21T14:03:24.815Z,15.82
2022-10-21T14:05:53.647Z,7.63
2022-10-21T14:08:26.874Z,9.25
2022-10-21T14:10:57.118Z,6.32
2022-10-21T14:13:25.368Z,8.35
2022-10-21T14:15:52.928Z,8.32
2022-10-21T14:18:30.216Z,8.13
2022-10-21T14:21:00.480Z,6.63
2022-10-21T14:23:28.549Z,7.57
2022-10-21T14:26:04.110Z,8.45
2022-10-21T14:28:31.525Z,6.40
2022-10-21T14:30:59.297Z,7.50
2022-10-21T14:33:28.354Z,7.28
2022-10-21T14:36:06.297Z,8.10
2022-10-21T14:38:38.966Z,4.88
2022-10-21T14:41:07.758Z,8.02
2022-10-21T14:43:37.082Z,7.93
2022-10-21T14:46:06.180Z,5.03
2022-10-21T14:48:35.143Z,4.32
2022-10-21T14:51:05.861Z,5.97
2022-10-21T14:53:35.685Z,7.28
2022-10-21T14:56:03.623Z,8.20
2022-10-21T14:58:32.828Z,5.20
2022-10-21T15:01:11.932Z,6.75
2022-10-21T15:03:38.971Z,4.10
2022-10-21T15:06:17.299Z,8.80
2022-10-21T15:08:56.632Z,6.40
2022-10-21T15:11:28.713Z,6.57
2022-10-21T15:13:56.893Z,6.70
2022-10-21T15:16:26.517Z,9.80
2022-10-21T15:18:53.972Z,6.60
2022-10-21T15:21:26.723Z,9.55
2022-10-21T15:23:59.023Z,6.18
2022-10-21T15:26:29.442Z,5.65
2022-10-21T15:28:56.752Z,7.60
2022-10-21T15:31:25.131Z,6.60
2022-10-21T15:33:53.083Z,6.63
2022-10-21T15:36:20.131Z,6.03
2022-10-21T15:38:47.551Z,5.40
2022-10-21T15:41:32.912Z,6.38
2022-10-21T15:44:01.642Z,8.88
2022-10-21T15:46:30.020Z,8.95
2022-10-21T15:48:57.747Z,8.82
2022-10-21T15:51:24.776Z,7.22
2022-10-21T15:53:51.789Z,5.88
2022-10-21T15:56:19.576Z,8.85
2022-10-21T15:58:46.763Z,3.80
2022-10-21T16:01:14.860Z,6.57
2022-10-21T16:03:41.893Z,6.38
2022-10-21T16:06:19.591Z,4.35
2022-10-21T16:08:46.770Z,4.55
2022-10-21T16:11:18.969Z,4.07
2022-10-21T16:13:52.796Z,8.90
2022-10-21T16:16:24.866Z,5.43
2022-10-21T16:18:52.635Z,4.88
2022-10-21T16:21:21.154Z,5.68
2022-10-21T16:23:48.234Z,5.53
2022-10-21T16:26:15.417Z,4.53
2022-10-21T16:28:42.596Z,2.72
2022-10-21T16:31:13.662Z,4.60
2022-10-21T16:33:41.252Z,6.13
2022-10-21T16:36:18.642Z,5.43
2022-10-21T16:38:46.387Z,5.90
2022-10-21T16:41:15.084Z,5.80
2022-10-21T16:43:42.501Z,3.97
2022-10-21T16:46:30.726Z,4.38
2022-10-21T16:48:58.722Z,5.00
2022-10-21T16:51:28.463Z,5.30
2022-10-21T16:53:55.517Z,4.55
2022-10-21T16:56:22.677Z,9.75
2022-10-21T16:58:50.370Z,9.00
2022-10-21T17:01:20.506Z,3.03
2022-10-21T17:03:47.558Z,4.93
2022-10-21T17:06:16.004Z,6.15
2022-10-21T17:08:43.331Z,7.40
2022-10-21T17:11:14.050Z,5.57
2022-10-21T17:13:42.227Z,5.63
2022-10-21T17:16:09.342Z,6.78
2022-10-21T17:18:36.746Z,3.22
2022-10-21T17:21:03.882Z,6.78
2022-10-21T17:23:30.964Z,5.45
2022-10-21T17:25:58.045Z,9.88
2022-10-21T17:28:25.059Z,6.70
2022-10-21T17:30:53.325Z,11.32
2022-10-21T17:33:20.433Z,10.20
2022-10-21T17:35:47.467Z,5.82
2022-10-21T17:38:14.973Z,5.97
2022-10-21T17:40:42.076Z,8.27
2022-10-21T17:43:09.501Z,13.82
2022-10-21T17:45:36.533Z,3.92
2022-10-21T17:48:03.530Z,7.95
2022-10-21T17:50:31.860Z,5.32
2022-10-21T17:52:59.412Z,8.73
2022-10-21T17:55:27.210Z,20.25
2022-10-21T17:57:54.222Z,14.55
2022-10-21T18:00:21.201Z,9.88
2022-10-21T18:02:48.279Z,7.88
2022-10-21T18:05:15.541Z,8.48
2022-10-21T18:07:42.573Z,9.38
2022-10-21T18:10:09.891Z,6.32
2022-10-21T18:12:37.187Z,6.35
2022-10-21T18:15:04.836Z,6.05
2022-10-21T18:17:33.985Z,3.08
2022-10-21T18:20:00.966Z,7.50
2022-10-21T18:22:28.019Z,5.57
2022-10-21T18:24:55.035Z,5.45
2022-10-21T18:27:22.395Z,3.33
2022-10-21T18:29:49.608Z,5.00
2022-10-21T18:32:16.689Z,4.78
2022-10-21T18:34:43.730Z,6.47
2022-10-21T18:37:10.780Z,3.30
2022-10-21T18:39:37.955Z,8.73
2022-10-21T18:42:05.092Z,4.90
2022-10-21T18:44:32.181Z,3.88
2022-10-21T18:46:59.223Z,4.13
2022-10-21T18:49:26.218Z,4.35
2022-10-21T18:51:53.536Z,7.72
2022-10-21T18:54:20.749Z,4.38
2022-10-21T18:56:47.927Z,4.18
2022-10-21T18:59:14.968Z,2.58
2022-10-21T19:01:42.229Z,1.85
2022-10-21T19:04:10.373Z,3.80
2022-10-21T19:06:38.929Z,4.18
2022-10-21T19:09:08.439Z,9.82
2022-10-21T19:11:35.566Z,5.15
2022-10-21T19:14:02.588Z,4.65
2022-10-21T19:16:30.039Z,8.07
2022-10-21T19:18:57.522Z,4.93
2022-10-21T19:21:25.169Z,3.97
2022-10-21T19:23:52.841Z,6.93
2022-10-21T19:26:22.477Z,5.22
2022-10-21T19:28:52.521Z,9.07
2022-10-21T19:31:22.052Z,2.72
2022-10-21T19:33:50.359Z,3.33
2022-10-21T19:36:17.982Z,5.75
2022-10-21T19:38:48.062Z,5.60
2022-10-21T19:41:20.308Z,3.35
2022-10-21T19:43:49.238Z,3.28
2022-10-21T19:46:21.093Z,4.10
2022-10-21T19:48:51.411Z,3.25
2022-10-21T19:51:20.171Z,5.07
2022-10-21T19:53:48.523Z,3.28
2022-10-21T19:56:18.695Z,3.72
2022-10-21T19:58:48.329Z,4.22
2022-10-21T20:01:20.645Z,3.75
2022-10-21T20:03:53.538Z,3.97
2022-10-21T20:06:25.327Z,3.60
2022-10-21T20:08:54.449Z,7.13
2022-10-21T20:11:22.245Z,2.90
2022-10-21T20:13:50.435Z,2.55
2022-10-21T20:16:19.283Z,3.92
2022-10-21T20:18:46.867Z,2.13
2022-10-21T20:21:14.700Z,6.43
2022-10-21T20:23:42.084Z,2.75
2022-10-21T20:26:09.774Z,2.88
2022-10-21T20:28:37.542Z,4.57
2022-10-21T20:31:09.047Z,5.72
2022-10-21T20:33:38.143Z,2.05
2022-10-21T20:36:06.156Z,3.75
2022-10-21T20:38:33.531Z,3.03
2022-10-21T20:41:06.010Z,4.15
2022-10-21T20:43:34.378Z,3.13
2022-10-21T20:46:05.228Z,2.47
2022-10-21T20:48:32.677Z,1.55
2022-10-21T20:51:03.840Z,6.18
2022-10-21T20:53:31.882Z,2.75
2022-10-21T20:55:59.599Z,4.03
2022-10-21T20:58:26.685Z,5.70
2022-10-21T21:00:53.726Z,4.07
2022-10-21T21:03:20.781Z,4.45
2022-10-21T21:05:47.800Z,9.15
2022-10-21T21:08:14.967Z,1.80
2022-10-21T21:10:42.011Z,2.75
2022-10-21T21:13:09.115Z,3.42
2022-10-21T21:15:36.146Z,7.35
2022-10-21T21:18:04.038Z,2.97
2022-10-21T21:20:32.042Z,4.32
2022-10-21T21:22:59.257Z,3.20
2022-10-21T21:25:26.275Z,2.40
2022-10-21T21:27:53.266Z,4.00
2022-10-21T21:30:20.389Z,4.35
2022-10-21T21:32:47.422Z,5.65
2022-10-21T21:35:14.432Z,10.80
2022-10-21T21:37:41.427Z,11.73
2022-10-21T21:40:08.800Z,3.22
2022-10-21T21:42:35.796Z,8.52
2022-10-21T21:45:02.800Z,6.07
2022-10-21T21:47:29.897Z,3.97
2022-10-21T21:49:56.946Z,2.65
2022-10-21T21:52:24.493Z,3.20
2022-10-21T21:54:54.591Z,3.45
2022-10-21T21:57:28.919Z,5.28
2022-10-21T21:59:56.004Z,3.35
2022-10-21T22:02:22.998Z,2.10
2022-10-21T22:04:50.024Z,4.05
2022-10-21T22:07:17.146Z,1.27
2022-10-21T22:09:44.202Z,2.15
2022-10-21T22:12:14.420Z,3.70
2022-10-21T22:14:41.982Z,2.35
2022-10-21T22:17:09.103Z,2.40
2022-10-21T22:19:36.088Z,3.67
2022-10-21T22:22:03.055Z,3.47
2022-10-21T22:24:31.919Z,2.00
2022-10-21T22:26:58.916Z,3.03
2022-10-21T22:29:25.910Z,7.72
2022-10-21T22:31:53.019Z,3.92
2022-10-21T22:34:20.072Z,2.83
2022-10-21T22:36:47.070Z,2.47
2022-10-21T22:39:14.243Z,2.75
2022-10-21T22:41:41.218Z,3.85
2022-10-21T22:44:08.245Z,3.53
2022-10-21T22:46:35.531Z,4.13
2022-10-21T22:49:04.154Z,4.85
2022-10-21T22:51:31.922Z,2.97
2022-10-21T22:53:59.163Z,3.80
2022-10-21T22:56:26.466Z,4.38
2022-10-21T22:58:53.509Z,2.60
2022-10-21T23:01:23.720Z,1.75
2022-10-21T23:03:50.715Z,9.20
2022-10-21T23:06:17.705Z,4.05
2022-10-21T23:08:44.762Z,2.75
2022-10-21T23:11:11.793Z,2.58
2022-10-21T23:13:47.385Z,3.13
2022-10-21T23:16:23.602Z,3.25
2022-10-21T23:18:50.794Z,6.03
2022-10-21T23:21:17.860Z,6.68
2022-10-21T23:23:44.907Z,3.35
2022-10-21T23:26:11.887Z,3.33
2022-10-21T23:28:38.868Z,2.42
2022-10-21T23:31:05.952Z,3.97
2022-10-21T23:33:32.946Z,6.60
2022-10-21T23:35:59.910Z,2.50
2022-10-21T23:38:26.905Z,3.40
2022-10-21T23:40:53.898Z,5.20
2022-10-21T23:43:20.895Z,7.45
2022-10-21T23:45:48.905Z,5.28
2022-10-21T23:48:16.141Z,8.10
2022-10-21T23:50:44.022Z,5.93
2022-10-21T23:53:11.792Z,4.25
2022-10-21T23:55:38.816Z,3.80
2022-10-21T23:58:05.809Z,3.78
